Terminal Aerodrome Forecast
Issued by NWS Chicago, IL

Home | Current Version | Previous Version | Graphics & Text | Print | Product List | Glossary On
Versions: 1 2 3 4 5 6 7 8 9 10 11 12 13 14 15 16 17 18 19 20 21 22 23 24 25 26 27 28 29 30 31 32 33
000
FTUS43 KLOT 262300
TAFRFD
TAF
KRFD 262337Z 2700/2724 25005KT P6SM SCT025 BKN150
     FM270400 00000KT 4SM BR FEW150
     FM270900 00000KT 2SM BR BCFG SKC
     FM271400 30012G18KT P6SM SCT150
     FM271700 31018G28KT P6SM BKN045=

USA.gov is the U.S. government's official web portal to all federal, state and local government web resources and services.